Time;durP1;ratioP1;P1;durP2;ratioP2;P2;SDS_P1;SDS_P2;PMS_P1;PMS_P2;Temp;Humidity;BMP_temperature;BMP_pressure;BME280_temperature;BME280_humidity;BME280_pressure;Samples;Min_cycle;Max_cycle;Signal;HPM_P1;HPM_P2
2023/11/08 00:02:12;;;;;;;14.77;6.43;;;;;;;;;;5025391;28;20036;-66
2023/11/08 00:04:37;;;;;;;9.87;5.10;;;;;;;;;;5038790;28;20265;-67
2023/11/08 00:07:03;;;;;;;14.50;7.10;;;;;;;;;;5039523;28;20044;-67
2023/11/08 00:09:28;;;;;;;12.80;6.03;;;;;;;;;;5044463;28;20566;-66
2023/11/08 00:11:53;;;;;;;10.17;6.03;;;;;;;;;;5041348;28;20029;-64
2023/11/08 00:14:19;;;;;;;12.13;7.20;;;;;;;;;;5036830;28;20118;-67
2023/11/08 00:16:44;;;;;;;9.00;4.90;;;;;;;;;;5042110;28;20057;-64
2023/11/08 00:19:09;;;;;;;12.20;7.10;;;;;;;;;;5037967;28;20393;-64
2023/11/08 00:21:35;;;;;;;13.17;7.70;;;;;;;;;;5040515;28;20071;-66
2023/11/08 00:24:00;;;;;;;15.20;8.37;;;;;;;;;;5037875;28;20021;-67
2023/11/08 00:26:26;;;;;;;11.37;6.57;;;;;;;;;;5036381;28;20397;-64
2023/11/08 00:28:51;;;;;;;12.97;7.20;;;;;;;;;;5040029;28;20512;-67
2023/11/08 00:31:17;;;;;;;12.53;7.13;;;;;;;;;;5036364;28;20124;-67
2023/11/08 00:33:42;;;;;;;10.73;6.17;;;;;;;;;;5035467;28;20035;-67
2023/11/08 00:36:07;;;;;;;9.47;6.00;;;;;;;;;;5034882;28;20032;-63
2023/11/08 00:38:33;;;;;;;13.53;7.20;;;;;;;;;;5033388;28;20060;-64
2023/11/08 00:40:58;;;;;;;12.17;6.33;;;;;;;;;;5040081;28;20028;-62
2023/11/08 00:43:24;;;;;;;11.97;6.63;;;;;;;;;;5038229;28;20028;-62
2023/11/08 00:45:51;;;;;;;11.17;7.50;;;;;;;;;;5036099;28;20032;-65
2023/11/08 00:48:17;;;;;;;12.90;7.70;;;;;;;;;;5032290;28;20098;-61
2023/11/08 00:50:42;;;;;;;16.07;8.63;;;;;;;;;;5040781;28;20469;-65
2023/11/08 00:53:10;;;;;;;15.40;8.80;;;;;;;;;;5039194;28;20070;-64
2023/11/08 00:55:36;;;;;;;15.50;8.97;;;;;;;;;;5043344;28;20032;-65
2023/11/08 00:58:01;;;;;;;17.63;9.77;;;;;;;;;;5037489;28;20025;-66
2023/11/08 01:00:27;;;;;;;17.17;9.13;;;;;;;;;;5042728;28;20028;-66
2023/11/08 01:02:53;;;;;;;17.20;10.47;;;;;;;;;;5044036;28;20017;-66
2023/11/08 01:05:19;;;;;;;17.93;9.77;;;;;;;;;;5042396;28;20064;-66
2023/11/08 01:07:44;;;;;;;16.67;9.70;;;;;;;;;;5041135;28;20056;-62
2023/11/08 01:10:10;;;;;;;20.23;9.43;;;;;;;;;;5045452;28;20125;-65
2023/11/08 01:12:35;;;;;;;18.90;10.63;;;;;;;;;;5042495;28;20025;-65
2023/11/08 01:15:00;;;;;;;19.40;10.13;;;;;;;;;;5043469;28;20028;-65
2023/11/08 01:17:26;;;;;;;21.93;10.70;;;;;;;;;;5042189;28;20500;-65
2023/11/08 01:19:51;;;;;;;14.33;7.93;;;;;;;;;;5044036;28;20412;-60
2023/11/08 01:22:16;;;;;;;20.50;10.30;;;;;;;;;;5040514;28;20083;-61
2023/11/08 01:24:42;;;;;;;20.03;9.63;;;;;;;;;;5038326;28;20025;-65
2023/11/08 01:27:08;;;;;;;16.23;8.87;;;;;;;;;;5041622;28;20029;-62
2023/11/08 01:29:34;;;;;;;17.53;9.70;;;;;;;;;;5040500;28;20327;-61
2023/11/08 01:31:59;;;;;;;15.00;8.73;;;;;;;;;;5040360;28;20029;-63
2023/11/08 01:34:24;;;;;;;16.10;9.53;;;;;;;;;;5036643;28;20098;-66
2023/11/08 01:36:50;;;;;;;20.00;10.37;;;;;;;;;;5040943;28;20041;-66
2023/11/08 01:39:16;;;;;;;19.07;9.63;;;;;;;;;;5041172;28;20079;-67
2023/11/08 01:41:45;;;;;;;19.27;11.23;;;;;;;;;;5040213;28;20025;-66
2023/11/08 01:44:12;;;;;;;18.47;10.03;;;;;;;;;;5037725;28;20082;-63
2023/11/08 01:46:38;;;;;;;22.83;11.67;;;;;;;;;;5035717;28;20056;-66
2023/11/08 01:49:04;;;;;;;20.13;11.77;;;;;;;;;;5043073;28;20060;-66
2023/11/08 01:51:30;;;;;;;19.47;10.13;;;;;;;;;;5038672;28;20441;-67
2023/11/08 01:53:55;;;;;;;20.40;11.47;;;;;;;;;;5039253;28;20056;-66
2023/11/08 01:56:21;;;;;;;23.27;11.80;;;;;;;;;;5034038;28;20048;-67
2023/11/08 01:58:47;;;;;;;24.07;12.13;;;;;;;;;;5042097;28;20083;-66
2023/11/08 02:01:12;;;;;;;21.70;11.03;;;;;;;;;;5043916;28;20427;-67
2023/11/08 02:03:38;;;;;;;22.50;12.83;;;;;;;;;;5043929;28;20076;-68
2023/11/08 02:06:04;;;;;;;24.13;13.20;;;;;;;;;;5038419;28;20050;-68
2023/11/08 02:08:30;;;;;;;24.03;12.03;;;;;;;;;;5041052;28;20463;-68
2023/11/08 02:10:56;;;;;;;25.70;12.63;;;;;;;;;;5036821;28;20025;-70
2023/11/08 02:13:22;;;;;;;23.23;12.07;;;;;;;;;;5042272;28;20025;-69
2023/11/08 02:15:48;;;;;;;23.73;11.27;;;;;;;;;;5039906;28;20029;-68
2023/11/08 02:18:13;;;;;;;24.43;13.63;;;;;;;;;;5041103;28;20064;-70
2023/11/08 02:20:39;;;;;;;29.07;15.00;;;;;;;;;;5037571;28;20052;-72
2023/11/08 02:23:04;;;;;;;24.53;12.37;;;;;;;;;;5038073;28;20058;-71
2023/11/08 02:25:30;;;;;;;29.40;14.40;;;;;;;;;;5041767;28;20036;-70
2023/11/08 02:27:55;;;;;;;24.93;13.23;;;;;;;;;;5042370;28;20025;-69
2023/11/08 02:30:20;;;;;;;24.83;13.80;;;;;;;;;;5040043;28;20405;-70
2023/11/08 02:32:45;;;;;;;25.90;13.47;;;;;;;;;;5037518;28;20155;-71
2023/11/08 02:35:11;;;;;;;29.00;14.90;;;;;;;;;;5045129;28;20107;-72
2023/11/08 02:37:36;;;;;;;28.53;14.93;;;;;;;;;;5038664;28;20033;-70
2023/11/08 02:40:03;;;;;;;27.87;14.83;;;;;;;;;;5041669;28;20044;-68
2023/11/08 02:42:29;;;;;;;25.73;13.63;;;;;;;;;;5039581;28;20482;-68
2023/11/08 02:44:55;;;;;;;24.93;13.13;;;;;;;;;;5037060;28;20378;-71
2023/11/08 02:47:20;;;;;;;27.00;13.67;;;;;;;;;;5040567;28;20025;-66
2023/11/08 02:49:47;;;;;;;26.93;15.27;;;;;;;;;;5044099;28;20342;-72
2023/11/08 02:52:12;;;;;;;26.83;15.17;;;;;;;;;;5042345;28;20435;-71
2023/11/08 02:54:37;;;;;;;26.70;14.23;;;;;;;;;;5040308;28;20052;-71
2023/11/08 02:57:03;;;;;;;26.27;13.97;;;;;;;;;;5040810;28;20218;-72
2023/11/08 02:59:28;;;;;;;26.17;14.80;;;;;;;;;;5041826;28;20124;-73
2023/11/08 03:01:54;;;;;;;24.87;13.50;;;;;;;;;;5041912;28;20467;-71
2023/11/08 03:04:20;;;;;;;24.40;12.30;;;;;;;;;;5029706;28;20436;-70
2023/11/08 03:06:46;;;;;;;27.10;14.67;;;;;;;;;;5019529;28;20027;-70
2023/11/08 03:09:11;;;;;;;24.67;13.20;;;;;;;;;;5020946;28;20057;-66
2023/11/08 03:11:38;;;;;;;27.63;13.87;;;;;;;;;;5021809;28;20422;-70
2023/11/08 03:14:03;;;;;;;29.07;13.77;;;;;;;;;;5024021;28;20029;-72
2023/11/08 03:16:29;;;;;;;25.37;12.90;;;;;;;;;;5024035;28;20466;-70
2023/11/08 03:18:54;;;;;;;27.00;13.83;;;;;;;;;;5019113;28;20025;-71
2023/11/08 03:21:19;;;;;;;21.87;12.23;;;;;;;;;;5018796;28;20021;-66
2023/11/08 03:23:44;;;;;;;21.47;10.73;;;;;;;;;;5024447;28;20417;-69
2023/11/08 03:26:10;;;;;;;28.20;14.00;;;;;;;;;;5016793;28;20373;-69
2023/11/08 03:28:35;;;;;;;24.60;13.57;;;;;;;;;;5021819;28;20072;-71
2023/11/08 03:31:00;;;;;;;24.43;12.23;;;;;;;;;;5019939;28;20100;-69
2023/11/08 03:33:26;;;;;;;24.97;13.73;;;;;;;;;;5020731;28;20564;-65
2023/11/08 03:35:51;;;;;;;25.77;12.93;;;;;;;;;;5012891;28;20349;-64
2023/11/08 03:38:16;;;;;;;23.07;12.30;;;;;;;;;;5018583;28;20050;-67
2023/11/08 03:40:42;;;;;;;21.50;11.77;;;;;;;;;;5016334;28;20101;-69
2023/11/08 03:43:08;;;;;;;25.33;12.30;;;;;;;;;;5018857;28;20032;-66
2023/11/08 03:45:33;;;;;;;22.07;12.53;;;;;;;;;;5019971;28;20022;-66
2023/11/08 03:47:58;;;;;;;20.97;11.47;;;;;;;;;;5021458;28;20068;-65
2023/11/08 03:50:23;;;;;;;23.67;13.20;;;;;;;;;;5019523;28;20032;-64
2023/11/08 03:52:48;;;;;;;26.07;13.80;;;;;;;;;;5011070;28;20029;-67
2023/11/08 03:55:14;;;;;;;23.93;13.07;;;;;;;;;;5020768;28;20144;-69
2023/11/08 03:57:40;;;;;;;16.27;8.43;;;;;;;;;;5021885;28;20097;-65
2023/11/08 04:00:06;;;;;;;22.63;12.37;;;;;;;;;;5021934;28;20086;-67
2023/11/08 04:02:31;;;;;;;20.90;10.67;;;;;;;;;;5016699;28;20433;-65
2023/11/08 04:04:57;;;;;;;21.67;12.13;;;;;;;;;;5032274;28;20064;-62
2023/11/08 04:07:23;;;;;;;25.50;13.67;;;;;;;;;;5041552;28;20040;-63
2023/11/08 04:09:48;;;;;;;20.50;11.37;;;;;;;;;;5040287;28;20022;-65
2023/11/08 04:12:14;;;;;;;21.97;11.70;;;;;;;;;;5038523;28;20246;-64
2023/11/08 04:14:39;;;;;;;21.50;12.30;;;;;;;;;;5036756;28;20032;-63
2023/11/08 04:17:05;;;;;;;22.60;11.67;;;;;;;;;;5038935;28;20087;-62
2023/11/08 04:19:31;;;;;;;20.33;10.93;;;;;;;;;;5037001;28;20450;-65
2023/11/08 04:21:56;;;;;;;21.20;12.20;;;;;;;;;;5042166;28;20036;-63
2023/11/08 04:24:22;;;;;;;24.80;12.93;;;;;;;;;;5037982;28;20021;-64
2023/11/08 04:26:48;;;;;;;22.57;12.97;;;;;;;;;;5040596;28;20482;-65
2023/11/08 04:29:13;;;;;;;25.70;14.17;;;;;;;;;;5037698;28;20022;-66
2023/11/08 04:31:39;;;;;;;23.27;12.77;;;;;;;;;;5042311;28;20582;-68
2023/11/08 04:34:04;;;;;;;23.93;14.37;;;;;;;;;;5044314;28;20021;-62
2023/11/08 04:36:29;;;;;;;23.73;12.30;;;;;;;;;;5044182;28;20112;-62
2023/11/08 04:38:54;;;;;;;25.87;13.70;;;;;;;;;;5044408;28;20381;-68
2023/11/08 04:41:20;;;;;;;28.03;14.33;;;;;;;;;;5038371;28;20482;-68
2023/11/08 04:43:46;;;;;;;24.90;13.23;;;;;;;;;;5038415;28;20032;-69
2023/11/08 04:46:13;;;;;;;25.57;13.33;;;;;;;;;;5041446;28;20021;-68
2023/11/08 04:48:39;;;;;;;26.57;14.47;;;;;;;;;;5029304;28;20504;-61
2023/11/08 04:51:04;;;;;;;26.30;13.67;;;;;;;;;;5041484;28;20032;-65
2023/11/08 04:53:30;;;;;;;27.80;14.00;;;;;;;;;;5038699;28;20019;-66
2023/11/08 04:55:56;;;;;;;30.60;14.43;;;;;;;;;;5039056;28;20431;-69
2023/11/08 04:58:21;;;;;;;24.70;13.70;;;;;;;;;;5041581;28;20026;-66
2023/11/08 05:00:47;;;;;;;29.27;11.77;;;;;;;;;;5037820;28;20489;-67
2023/11/08 05:03:12;;;;;;;24.83;13.27;;;;;;;;;;5041632;28;20466;-68
2023/11/08 05:05:38;;;;;;;24.27;13.63;;;;;;;;;;5045581;28;20025;-68
2023/11/08 05:08:07;;;;;;;24.47;12.93;;;;;;;;;;5041531;28;20078;-68
2023/11/08 05:10:33;;;;;;;24.40;13.60;;;;;;;;;;5039633;28;20035;-68
2023/11/08 05:13:02;;;;;;;29.73;14.23;;;;;;;;;;5044260;28;20021;-68
2023/11/08 05:15:29;;;;;;;24.97;12.23;;;;;;;;;;5044449;28;20049;-69
2023/11/08 05:17:55;;;;;;;30.03;14.03;;;;;;;;;;5042894;28;20021;-70
2023/11/08 05:20:22;;;;;;;25.20;13.03;;;;;;;;;;5026594;28;20413;-65
2023/11/08 05:22:47;;;;;;;29.77;13.97;;;;;;;;;;5041496;28;20035;-70
2023/11/08 05:25:12;;;;;;;25.53;13.60;;;;;;;;;;5044724;28;20104;-70
2023/11/08 05:27:38;;;;;;;24.97;13.10;;;;;;;;;;5033424;28;20373;-69
2023/11/08 05:30:04;;;;;;;24.43;12.87;;;;;;;;;;5044773;28;20055;-69
2023/11/08 05:32:30;;;;;;;26.50;13.13;;;;;;;;;;5041688;28;20478;-69
2023/11/08 05:34:56;;;;;;;27.77;13.37;;;;;;;;;;5045086;28;20033;-69
2023/11/08 05:37:21;;;;;;;26.67;14.03;;;;;;;;;;5035920;28;20021;-69
2023/11/08 05:39:47;;;;;;;26.33;14.57;;;;;;;;;;5038102;28;20032;-69
2023/11/08 05:42:12;;;;;;;30.13;14.33;;;;;;;;;;5040039;28;20153;-68
2023/11/08 05:44:37;;;;;;;27.93;14.37;;;;;;;;;;5027206;28;20548;-69
2023/11/08 05:47:03;;;;;;;23.67;12.60;;;;;;;;;;5041297;28;20033;-68
2023/11/08 05:49:28;;;;;;;28.13;13.47;;;;;;;;;;5040382;28;20025;-65
2023/11/08 05:51:53;;;;;;;27.73;13.27;;;;;;;;;;5040252;28;20028;-69
2023/11/08 05:54:19;;;;;;;27.97;13.33;;;;;;;;;;5035793;28;20021;-68
2023/11/08 05:56:44;;;;;;;29.13;14.47;;;;;;;;;;5040008;28;20036;-69
2023/11/08 05:59:09;;;;;;;23.87;12.57;;;;;;;;;;5040079;28;20110;-67
2023/11/08 06:01:35;;;;;;;31.33;13.43;;;;;;;;;;5038832;28;20021;-67
2023/11/08 06:04:01;;;;;;;28.50;13.27;;;;;;;;;;5039184;28;20053;-69
2023/11/08 06:06:27;;;;;;;27.97;14.10;;;;;;;;;;5038438;28;20040;-69
2023/11/08 06:08:52;;;;;;;28.00;14.00;;;;;;;;;;5041329;28;20036;-69
2023/11/08 06:11:18;;;;;;;28.40;12.43;;;;;;;;;;5042976;28;20152;-66
2023/11/08 06:13:43;;;;;;;28.07;13.93;;;;;;;;;;5040871;28;20029;-67
2023/11/08 06:16:08;;;;;;;30.13;14.07;;;;;;;;;;5039304;28;20496;-66
2023/11/08 06:18:34;;;;;;;27.80;13.10;;;;;;;;;;5042171;28;20435;-68
2023/11/08 06:20:59;;;;;;;30.03;14.13;;;;;;;;;;5042086;28;20028;-70
2023/11/08 06:23:24;;;;;;;28.40;13.43;;;;;;;;;;5041809;28;20013;-70
2023/11/08 06:25:50;;;;;;;25.77;13.10;;;;;;;;;;5042819;28;20539;-70
2023/11/08 06:28:15;;;;;;;26.70;14.10;;;;;;;;;;5042149;28;20216;-69
2023/11/08 06:30:40;;;;;;;23.73;12.40;;;;;;;;;;5026160;28;20032;-62
2023/11/08 06:33:05;;;;;;;26.53;13.07;;;;;;;;;;5043020;28;20031;-68
2023/11/08 06:35:30;;;;;;;27.87;13.70;;;;;;;;;;5044149;28;20112;-68
2023/11/08 06:37:56;;;;;;;33.67;15.33;;;;;;;;;;5038259;28;20052;-68
2023/11/08 06:40:22;;;;;;;24.20;12.77;;;;;;;;;;5044004;28;20087;-66
2023/11/08 06:42:48;;;;;;;28.70;13.73;;;;;;;;;;5042008;28;20016;-64
2023/11/08 06:45:13;;;;;;;29.07;14.10;;;;;;;;;;5043816;28;20033;-64
2023/11/08 06:47:38;;;;;;;30.33;14.53;;;;;;;;;;5034534;28;20021;-66
2023/11/08 06:50:04;;;;;;;25.93;14.23;;;;;;;;;;5033762;28;20032;-68
2023/11/08 06:52:29;;;;;;;28.50;13.17;;;;;;;;;;5042062;28;20078;-69
2023/11/08 06:54:54;;;;;;;29.20;13.47;;;;;;;;;;5041843;28;20021;-68
2023/11/08 06:57:20;;;;;;;29.77;14.67;;;;;;;;;;5042637;28;20060;-64
2023/11/08 06:59:45;;;;;;;24.80;13.27;;;;;;;;;;5040704;28;20016;-68
2023/11/08 07:02:11;;;;;;;23.77;12.83;;;;;;;;;;5036468;28;20116;-69
2023/11/08 07:04:36;;;;;;;31.23;14.23;;;;;;;;;;5041591;28;20064;-68
2023/11/08 07:07:02;;;;;;;28.77;13.67;;;;;;;;;;5036157;28;20576;-71
2023/11/08 07:09:27;;;;;;;25.97;12.87;;;;;;;;;;5038677;28;20074;-69
2023/11/08 07:11:52;;;;;;;29.87;12.17;;;;;;;;;;5040764;28;20048;-70
2023/11/08 07:14:18;;;;;;;26.23;14.13;;;;;;;;;;5038845;28;20024;-71
2023/11/08 07:16:44;;;;;;;25.00;12.63;;;;;;;;;;5039815;28;20156;-68
2023/11/08 07:19:09;;;;;;;25.70;13.27;;;;;;;;;;5037058;28;20021;-70
2023/11/08 07:21:34;;;;;;;23.87;13.30;;;;;;;;;;5041176;28;20183;-71
2023/11/08 07:24:00;;;;;;;27.83;14.03;;;;;;;;;;5042236;28;20032;-72
2023/11/08 07:26:25;;;;;;;27.37;14.03;;;;;;;;;;5038079;28;20036;-70
2023/11/08 07:28:51;;;;;;;22.20;11.60;;;;;;;;;;5042212;28;20086;-74
2023/11/08 07:31:16;;;;;;;24.07;12.33;;;;;;;;;;5025635;28;20029;-69
2023/11/08 07:33:42;;;;;;;25.30;11.97;;;;;;;;;;5037178;28;20474;-65
2023/11/08 07:36:08;;;;;;;25.53;12.30;;;;;;;;;;5040391;28;20029;-70
2023/11/08 07:38:33;;;;;;;23.93;12.37;;;;;;;;;;5041018;28;20095;-68
2023/11/08 07:41:00;;;;;;;22.77;11.17;;;;;;;;;;5040709;28;20060;-68
2023/11/08 07:43:26;;;;;;;19.30;8.60;;;;;;;;;;5040424;28;20279;-74
2023/11/08 07:45:51;;;;;;;27.07;12.17;;;;;;;;;;5031461;28;20040;-65
2023/11/08 07:48:16;;;;;;;20.87;10.97;;;;;;;;;;5037885;28;20025;-64
2023/11/08 07:50:42;;;;;;;20.30;11.13;;;;;;;;;;5041796;28;20017;-69
2023/11/08 07:53:07;;;;;;;24.90;10.90;;;;;;;;;;5043424;28;20035;-65
2023/11/08 07:55:33;;;;;;;21.97;11.50;;;;;;;;;;5040455;28;20587;-65
2023/11/08 07:58:00;;;;;;;19.93;10.87;;;;;;;;;;5033354;28;20478;-71
2023/11/08 08:00:26;;;;;;;20.20;11.07;;;;;;;;;;5028307;28;20026;-69
2023/11/08 08:02:51;;;;;;;20.97;10.53;;;;;;;;;;5040883;28;20060;-66
2023/11/08 08:05:17;;;;;;;17.07;9.67;;;;;;;;;;5042229;28;20464;-65
2023/11/08 08:07:42;;;;;;;21.57;10.83;;;;;;;;;;5042566;28;20318;-69
2023/11/08 08:10:09;;;;;;;23.37;11.60;;;;;;;;;;5037386;28;20152;-68
2023/11/08 08:12:34;;;;;;;21.60;10.63;;;;;;;;;;5038898;28;20013;-67
2023/11/08 08:15:00;;;;;;;20.77;9.97;;;;;;;;;;5043539;28;20082;-68
2023/11/08 08:17:25;;;;;;;21.23;10.67;;;;;;;;;;5041051;28;20044;-67
2023/11/08 08:19:53;;;;;;;21.97;11.50;;;;;;;;;;5042802;28;20047;-67
2023/11/08 08:22:20;;;;;;;19.13;8.63;;;;;;;;;;5044888;28;20018;-65
2023/11/08 08:24:46;;;;;;;21.53;10.10;;;;;;;;;;5042583;28;20351;-67
2023/11/08 08:27:12;;;;;;;22.53;10.87;;;;;;;;;;5044694;28;20035;-68
2023/11/08 08:29:37;;;;;;;19.87;9.67;;;;;;;;;;5042555;28;20176;-63
2023/11/08 08:32:03;;;;;;;21.57;10.10;;;;;;;;;;5044220;28;20036;-64
2023/11/08 08:34:28;;;;;;;19.83;9.23;;;;;;;;;;5040361;28;20029;-66
2023/11/08 08:36:53;;;;;;;17.00;8.60;;;;;;;;;;5046809;28;20029;-66
2023/11/08 08:39:20;;;;;;;17.87;9.53;;;;;;;;;;5043565;28;20053;-62
2023/11/08 08:41:45;;;;;;;15.10;7.23;;;;;;;;;;5039724;28;20013;-62
2023/11/08 08:44:11;;;;;;;17.30;9.40;;;;;;;;;;5038455;28;20021;-65
2023/11/08 08:46:37;;;;;;;14.40;7.37;;;;;;;;;;5042109;28;20256;-60
2023/11/08 08:49:02;;;;;;;23.53;11.17;;;;;;;;;;5045704;28;20403;-65
2023/11/08 08:51:27;;;;;;;19.30;9.97;;;;;;;;;;5044738;28;20369;-66
2023/11/08 08:53:53;;;;;;;21.80;10.57;;;;;;;;;;5036682;28;20226;-66
2023/11/08 08:56:18;;;;;;;18.57;9.23;;;;;;;;;;5033569;28;20079;-64
2023/11/08 08:58:43;;;;;;;22.80;9.00;;;;;;;;;;5041988;28;20100;-64
2023/11/08 09:01:12;;;;;;;17.87;8.70;;;;;;;;;;5046564;28;20056;-64
2023/11/08 09:03:37;;;;;;;20.53;9.13;;;;;;;;;;5041010;28;20041;-62
2023/11/08 09:06:04;;;;;;;19.67;8.83;;;;;;;;;;5034681;28;20032;-63
2023/11/08 09:08:29;;;;;;;28.20;11.63;;;;;;;;;;5033973;28;20369;-64
2023/11/08 09:10:54;;;;;;;16.10;8.80;;;;;;;;;;5043282;28;20100;-66
2023/11/08 09:13:19;;;;;;;23.03;10.33;;;;;;;;;;5043566;28;20013;-66
2023/11/08 09:15:46;;;;;;;23.00;10.47;;;;;;;;;;5042391;28;20056;-67
2023/11/08 09:18:11;;;;;;;16.20;6.67;;;;;;;;;;5038010;28;20474;-63
2023/11/08 09:20:36;;;;;;;16.47;7.80;;;;;;;;;;5041281;28;20029;-64
2023/11/08 09:23:02;;;;;;;17.40;7.57;;;;;;;;;;5042239;28;20039;-65
2023/11/08 09:25:28;;;;;;;20.83;7.93;;;;;;;;;;5040550;28;20014;-62
2023/11/08 09:27:53;;;;;;;32.53;11.23;;;;;;;;;;5041215;28;20029;-65
2023/11/08 09:30:18;;;;;;;27.20;9.97;;;;;;;;;;5042061;28;20028;-65
2023/11/08 09:32:45;;;;;;;24.07;9.90;;;;;;;;;;5039519;28;20021;-61
2023/11/08 09:35:10;;;;;;;25.10;9.20;;;;;;;;;;5041745;28;20385;-67
2023/11/08 09:37:36;;;;;;;14.43;7.10;;;;;;;;;;5039885;28;20035;-62
2023/11/08 09:40:01;;;;;;;10.50;5.53;;;;;;;;;;5042739;28;20114;-66
2023/11/08 09:42:29;;;;;;;14.63;7.37;;;;;;;;;;5040745;28;20064;-63
2023/11/08 09:44:58;;;;;;;14.83;7.63;;;;;;;;;;5038693;28;20021;-66
2023/11/08 09:47:23;;;;;;;16.60;7.23;;;;;;;;;;5041597;28;20025;-66
2023/11/08 09:49:50;;;;;;;14.93;6.93;;;;;;;;;;5041614;28;20043;-60
2023/11/08 09:52:16;;;;;;;14.87;5.80;;;;;;;;;;5036443;28;20251;-63
2023/11/08 09:54:42;;;;;;;12.43;5.53;;;;;;;;;;5034883;28;20026;-63
2023/11/08 09:57:09;;;;;;;16.90;5.90;;;;;;;;;;5044392;28;20033;-62
2023/11/08 09:59:35;;;;;;;9.97;6.03;;;;;;;;;;5042304;28;20021;-64
2023/11/08 10:02:04;;;;;;;9.07;5.10;;;;;;;;;;5043149;28;20111;-63
2023/11/08 10:04:30;;;;;;;10.20;4.50;;;;;;;;;;5030927;28;20087;-62
2023/11/08 10:06:55;;;;;;;11.83;5.00;;;;;;;;;;5032591;28;20029;-64
2023/11/08 10:09:31;;;;;;;12.10;5.23;;;;;;;;;;5044778;28;20170;-63
2023/11/08 10:11:56;;;;;;;11.97;5.13;;;;;;;;;;5044491;28;20505;-65
2023/11/08 10:14:31;;;;;;;11.10;4.77;;;;;;;;;;5039584;28;20091;-64
2023/11/08 10:16:56;;;;;;;12.67;4.87;;;;;;;;;;5033620;28;20040;-65
2023/11/08 10:19:21;;;;;;;8.87;4.07;;;;;;;;;;5038302;28;20437;-61
2023/11/08 10:21:48;;;;;;;10.60;4.23;;;;;;;;;;5042818;28;20706;-62
2023/11/08 10:24:16;;;;;;;13.53;4.47;;;;;;;;;;5041844;28;20240;-63
2023/11/08 10:26:42;;;;;;;11.10;3.50;;;;;;;;;;5037530;28;20139;-61
2023/11/08 10:29:10;;;;;;;9.57;4.10;;;;;;;;;;5040373;28;20025;-61
2023/11/08 10:31:42;;;;;;;8.30;3.60;;;;;;;;;;5043096;28;20032;-63
2023/11/08 10:34:08;;;;;;;7.65;2.95;;;;;;;;;;5040136;28;20124;-62
2023/11/08 10:36:34;;;;;;;12.23;3.87;;;;;;;;;;5040640;28;20017;-64
2023/11/08 10:39:00;;;;;;;9.77;3.40;;;;;;;;;;5041985;28;20028;-64
2023/11/08 10:41:27;;;;;;;8.40;3.60;;;;;;;;;;5038564;28;20019;-65
2023/11/08 10:44:06;;;;;;;7.80;3.63;;;;;;;;;;5042960;28;20450;-63
2023/11/08 10:46:32;;;;;;;9.07;3.63;;;;;;;;;;5038924;28;20373;-64
2023/11/08 10:48:59;;;;;;;8.53;3.00;;;;;;;;;;5040739;28;20523;-63
2023/11/08 10:51:24;;;;;;;8.10;3.03;;;;;;;;;;5039680;28;20495;-62
2023/11/08 10:53:49;;;;;;;9.30;3.10;;;;;;;;;;5039828;28;20104;-64
2023/11/08 10:56:16;;;;;;;5.63;2.73;;;;;;;;;;5040976;28;20020;-65
2023/11/08 10:58:43;;;;;;;10.40;2.70;;;;;;;;;;5037927;28;20122;-59
2023/11/08 11:01:12;;;;;;;9.43;3.27;;;;;;;;;;5035595;28;20528;-63
2023/11/08 11:03:38;;;;;;;10.30;2.97;;;;;;;;;;5035018;28;20276;-66
2023/11/08 11:06:04;;;;;;;5.90;2.20;;;;;;;;;;5038063;28;20040;-63
2023/11/08 11:08:31;;;;;;;6.77;2.70;;;;;;;;;;5040653;28;20021;-66
2023/11/08 11:10:57;;;;;;;6.90;2.30;;;;;;;;;;5038827;28;20029;-64
2023/11/08 11:13:44;;;;;;;7.27;2.20;;;;;;;;;;5034521;28;20017;-65
2023/11/08 11:16:15;;;;;;;5.70;2.37;;;;;;;;;;5029893;28;20021;-66
2023/11/08 11:18:43;;;;;;;7.75;2.80;;;;;;;;;;5043593;28;20096;-66
2023/11/08 11:21:26;;;;;;;8.67;2.93;;;;;;;;;;5041898;28;20505;-64
2023/11/08 11:23:52;;;;;;;7.43;2.70;;;;;;;;;;5037399;28;20429;-67
2023/11/08 11:26:38;;;;;;;4.63;1.80;;;;;;;;;;5032903;28;20028;-67
2023/11/08 11:29:07;;;;;;;7.53;2.67;;;;;;;;;;5042833;28;20036;-65
2023/11/08 11:31:40;;;;;;;9.93;2.40;;;;;;;;;;5040899;28;20031;-66
2023/11/08 11:34:29;;;;;;;5.47;2.33;;;;;;;;;;5038542;28;20032;-64
2023/11/08 11:37:00;;;;;;;10.13;2.50;;;;;;;;;;5038263;28;20111;-68
2023/11/08 11:39:26;;;;;;;9.23;2.40;;;;;;;;;;5026046;28;20108;-68
2023/11/08 11:41:51;;;;;;;6.70;2.10;;;;;;;;;;5040855;28;20009;-66
2023/11/08 11:44:17;;;;;;;9.73;2.47;;;;;;;;;;5038214;28;20009;-65
2023/11/08 11:46:49;;;;;;;9.73;2.60;;;;;;;;;;5041895;28;20021;-68
2023/11/08 11:49:16;;;;;;;4.50;2.10;;;;;;;;;;5038987;28;20155;-66
2023/11/08 11:51:42;;;;;;;7.60;1.93;;;;;;;;;;5037897;28;20569;-67
2023/11/08 11:54:08;;;;;;;7.63;2.13;;;;;;;;;;5039289;28;20409;-65
2023/11/08 11:56:33;;;;;;;8.80;2.23;;;;;;;;;;5035602;28;20021;-65
2023/11/08 11:58:59;;;;;;;6.40;2.10;;;;;;;;;;5038931;28;20013;-67
2023/11/08 12:01:24;;;;;;;5.87;2.07;;;;;;;;;;5034818;28;20540;-67
2023/11/08 12:03:50;;;;;;;6.57;1.80;;;;;;;;;;5037017;28;20057;-68
2023/11/08 12:06:15;;;;;;;8.07;2.10;;;;;;;;;;5037861;28;20045;-68
2023/11/08 12:08:40;;;;;;;6.83;1.93;;;;;;;;;;5036859;28;20409;-67
2023/11/08 12:11:12;;;;;;;6.23;2.40;;;;;;;;;;5032693;28;20036;-67
2023/11/08 12:13:37;;;;;;;;;;;;;;;;;;5034393;28;20025;-67
2023/11/08 12:16:02;;;;;;;3.65;1.70;;;;;;;;;;5040261;28;20289;-66
2023/11/08 12:18:28;;;;;;;5.43;2.10;;;;;;;;;;5039266;28;20025;-66
2023/11/08 12:20:53;;;;;;;5.80;1.97;;;;;;;;;;5038409;28;20097;-68
2023/11/08 12:23:18;;;;;;;5.70;1.67;;;;;;;;;;5031367;28;20018;-67
2023/11/08 12:25:43;;;;;;;4.13;1.70;;;;;;;;;;5039613;28;20096;-67
2023/11/08 12:28:08;;;;;;;6.17;1.67;;;;;;;;;;5042207;28;20426;-65
2023/11/08 12:30:35;;;;;;;3.73;1.90;;;;;;;;;;5041194;28;20021;-67
2023/11/08 12:33:00;;;;;;;3.57;1.60;;;;;;;;;;5038302;28;20366;-68
2023/11/08 12:35:26;;;;;;;5.70;1.83;;;;;;;;;;5035836;28;20017;-67
2023/11/08 12:37:55;;;;;;;3.40;1.43;;;;;;;;;;5035716;28;20036;-67
2023/11/08 12:40:22;;;;;;;4.43;1.60;;;;;;;;;;5041134;28;20075;-65
2023/11/08 12:42:48;;;;;;;7.60;1.87;;;;;;;;;;5039733;28;20100;-66
2023/11/08 12:45:33;;;;;;;5.13;1.67;;;;;;;;;;5040636;28;20090;-66
2023/11/08 12:48:04;;;;;;;6.33;1.53;;;;;;;;;;5036697;28;20057;-65
2023/11/08 12:50:30;;;;;;;;;;;;;;;;;;5036814;28;20012;-68
2023/11/08 12:52:55;;;;;;;6.30;1.88;;;;;;;;;;5040629;28;19908;-68
2023/11/08 12:55:20;;;;;;;6.43;1.50;;;;;;;;;;5043131;28;20154;-67
2023/11/08 12:57:45;;;;;;;7.37;2.10;;;;;;;;;;5042258;28;20083;-66
2023/11/08 13:00:11;;;;;;;5.60;1.73;;;;;;;;;;5038813;28;20017;-67
2023/11/08 13:02:37;;;;;;;6.37;2.13;;;;;;;;;;5040950;28;20035;-68
2023/11/08 13:05:04;;;;;;;4.93;1.40;;;;;;;;;;5037356;28;20041;-67
2023/11/08 13:07:29;;;;;;;8.80;2.00;;;;;;;;;;5037587;28;20024;-69
2023/11/08 13:09:55;;;;;;;4.07;1.67;;;;;;;;;;5035294;28;20186;-65
2023/11/08 13:12:21;;;;;;;5.60;1.70;;;;;;;;;;5038831;28;20091;-68
2023/11/08 13:14:48;;;;;;;6.43;1.73;;;;;;;;;;5040157;28;20026;-68
2023/11/08 13:17:13;;;;;;;6.27;1.97;;;;;;;;;;5040842;28;20049;-68
2023/11/08 13:19:38;;;;;;;7.17;1.67;;;;;;;;;;5038602;28;20055;-65
2023/11/08 13:22:03;;;;;;;7.20;1.70;;;;;;;;;;5036742;28;20037;-67
2023/11/08 13:24:29;;;;;;;8.83;2.27;;;;;;;;;;5040990;28;20674;-68
2023/11/08 13:26:54;;;;;;;9.23;1.93;;;;;;;;;;5042996;28;20273;-68
2023/11/08 13:29:19;;;;;;;5.33;1.70;;;;;;;;;;5040811;28;20117;-62
2023/11/08 13:31:45;;;;;;;4.57;1.63;;;;;;;;;;5034845;28;20268;-66
2023/11/08 13:34:10;;;;;;;6.13;1.80;;;;;;;;;;5037114;28;20025;-66
2023/11/08 13:36:35;;;;;;;7.03;1.83;;;;;;;;;;5046184;28;20095;-64
2023/11/08 13:39:03;;;;;;;7.03;1.93;;;;;;;;;;5043491;28;20089;-65
2023/11/08 13:41:28;;;;;;;6.17;1.70;;;;;;;;;;5041082;28;20461;-66
2023/11/08 13:43:53;;;;;;;9.07;1.80;;;;;;;;;;5035355;28;20008;-64
2023/11/08 13:46:19;;;;;;;6.83;2.00;;;;;;;;;;5041564;28;20045;-65
2023/11/08 13:48:44;;;;;;;5.77;1.90;;;;;;;;;;5039495;28;20009;-65
2023/11/08 13:51:10;;;;;;;6.97;1.97;;;;;;;;;;5043264;28;20021;-63
2023/11/08 13:53:36;;;;;;;8.20;1.70;;;;;;;;;;5041534;28;20483;-62
2023/11/08 13:56:02;;;;;;;7.80;1.77;;;;;;;;;;5043372;28;20025;-65
2023/11/08 13:58:27;;;;;;;7.03;1.73;;;;;;;;;;5038767;28;20022;-63
2023/11/08 14:00:52;;;;;;;6.23;1.70;;;;;;;;;;5036191;28;20048;-66
2023/11/08 14:03:18;;;;;;;7.00;1.80;;;;;;;;;;5030028;28;20029;-65
2023/11/08 14:05:43;;;;;;;3.87;1.50;;;;;;;;;;5023828;28;20038;-63
2023/11/08 14:08:08;;;;;;;5.73;1.37;;;;;;;;;;5020247;28;20406;-62
2023/11/08 14:10:34;;;;;;;11.30;1.40;;;;;;;;;;5017479;28;20029;-65
2023/11/08 14:13:00;;;;;;;4.17;1.27;;;;;;;;;;5007689;28;20030;-66
2023/11/08 14:15:25;;;;;;;7.60;1.10;;;;;;;;;;5014083;28;20391;-64
2023/11/08 14:17:54;;;;;;;3.97;1.23;;;;;;;;;;5019672;28;20467;-66
2023/11/08 14:20:19;;;;;;;11.03;1.77;;;;;;;;;;5016679;28;20121;-63
2023/11/08 14:22:45;;;;;;;9.03;1.30;;;;;;;;;;5022984;28;20104;-65